createdAt,value
2022-11-01T00:03:06.207Z,101031.58
2022-11-01T00:08:12.244Z,101030.98
2022-11-01T00:13:18.646Z,101029.70
2022-11-01T00:18:24.968Z,101029.02
2022-11-01T00:23:30.950Z,101033.48
2022-11-01T00:28:37.233Z,101030.14
2022-11-01T00:33:44.025Z,101022.06
2022-11-01T00:38:52.881Z,101014.61
2022-11-01T00:43:59.131Z,101012.77
2022-11-01T00:49:05.397Z,101007.00
2022-11-01T00:54:11.735Z,101008.10
2022-11-01T00:59:17.638Z,101003.74
2022-11-01T01:04:24.399Z,100998.32
2022-11-01T01:09:30.485Z,100994.09
2022-11-01T01:14:36.997Z,100990.50
2022-11-01T01:19:43.766Z,100986.73
2022-11-01T01:24:49.867Z,100982.73
2022-11-01T01:29:56.897Z,100982.52
2022-11-01T01:35:04.689Z,100981.45
2022-11-01T01:40:11.703Z,100979.60
2022-11-01T01:45:32.629Z,100978.27
2022-11-01T01:50:45.000Z,100977.59
2022-11-01T01:55:56.889Z,100976.64
2022-11-01T02:01:03.460Z,100971.46
2022-11-01T02:06:15.019Z,100965.98
2022-11-01T02:11:22.829Z,100965.38
2022-11-01T02:16:42.359Z,100962.20
2022-11-01T02:21:57.778Z,100961.71
2022-11-01T02:27:17.857Z,100962.77
2022-11-01T02:32:29.172Z,100956.73
2022-11-01T02:37:44.182Z,100950.41
2022-11-01T02:42:57.604Z,100943.70
2022-11-01T02:48:05.570Z,100938.05
2022-11-01T02:53:12.105Z,100929.69
2022-11-01T02:58:23.816Z,100920.94
2022-11-01T03:03:34.185Z,100913.23
2022-11-01T03:08:44.925Z,100904.98
2022-11-01T03:14:01.117Z,100903.15
2022-11-01T03:19:24.608Z,100903.02
2022-11-01T03:24:36.672Z,100905.30
2022-11-01T03:29:47.486Z,100903.98
2022-11-01T03:34:55.501Z,100901.97
2022-11-01T03:40:05.056Z,100902.52
2022-11-01T03:45:14.781Z,100906.20
2022-11-01T03:50:23.315Z,100908.33
2022-11-01T03:55:29.549Z,100902.44
2022-11-01T04:00:41.774Z,100900.98
2022-11-01T04:05:47.906Z,100904.03
2022-11-01T04:10:53.887Z,100898.95
2022-11-01T04:16:19.957Z,100895.23
2022-11-01T04:21:29.667Z,100891.36
2022-11-01T04:26:35.809Z,100881.86
2022-11-01T04:31:42.039Z,100879.44
2022-11-01T04:36:47.808Z,100876.92
2022-11-01T04:41:53.975Z,100871.73
2022-11-01T04:46:59.878Z,100872.60
2022-11-01T04:52:06.467Z,100864.80
2022-11-01T04:57:23.255Z,100859.27
2022-11-01T05:02:30.012Z,100851.00
2022-11-01T05:07:36.471Z,100853.85
2022-11-01T05:12:42.322Z,100846.70
2022-11-01T05:17:48.940Z,100845.41
2022-11-01T05:23:00.826Z,100844.94
2022-11-01T05:28:10.826Z,100839.48
2022-11-01T05:33:17.067Z,100840.46
2022-11-01T05:38:23.549Z,100844.16
2022-11-01T05:43:29.661Z,100846.07
2022-11-01T05:48:36.205Z,100848.48
2022-11-01T05:53:43.103Z,100838.33
2022-11-01T05:58:49.689Z,100831.48
2022-11-01T06:03:55.863Z,100833.05
2022-11-01T06:09:03.244Z,100839.79
2022-11-01T06:14:12.283Z,100855.24
2022-11-01T06:19:18.155Z,100861.60
2022-11-01T06:24:24.776Z,100859.48
2022-11-01T06:29:31.163Z,100859.35
2022-11-01T06:34:40.854Z,100860.55
2022-11-01T06:39:50.761Z,100862.65
2022-11-01T06:44:56.738Z,100852.51
2022-11-01T06:50:04.776Z,100853.71
2022-11-01T06:55:11.509Z,100854.67
2022-11-01T07:00:17.840Z,100851.63
2022-11-01T07:05:24.054Z,100848.81
2022-11-01T07:10:30.849Z,100838.15
2022-11-01T07:15:37.110Z,100835.86
2022-11-01T07:20:43.701Z,100845.38
2022-11-01T07:25:54.174Z,100846.48
2022-11-01T07:31:00.557Z,100850.44
2022-11-01T07:36:12.380Z,100852.88
2022-11-01T07:41:18.818Z,100856.55
2022-11-01T07:46:28.605Z,100852.15
2022-11-01T07:51:36.715Z,100853.45
2022-11-01T07:56:44.082Z,100846.65
2022-11-01T08:02:05.401Z,100848.04
2022-11-01T08:07:24.771Z,100841.11
2022-11-01T08:12:47.939Z,100838.80
2022-11-01T08:17:57.191Z,100845.27
2022-11-01T08:23:04.109Z,100843.70
2022-11-01T08:28:13.741Z,100851.20
2022-11-01T08:33:20.034Z,100853.73
2022-11-01T08:38:27.464Z,100850.11
2022-11-01T08:43:38.045Z,100843.45
2022-11-01T08:48:48.629Z,100830.67
2022-11-01T08:53:56.804Z,100833.80
2022-11-01T08:59:03.320Z,100834.67
2022-11-01T09:04:09.499Z,100835.52
2022-11-01T09:09:15.880Z,100828.64
2022-11-01T09:14:25.134Z,100821.80
2022-11-01T09:19:31.232Z,100824.75
2022-11-01T09:24:37.313Z,100824.34
2022-11-01T09:29:46.568Z,100824.05
2022-11-01T09:34:55.441Z,100816.08
2022-11-01T09:40:03.425Z,100805.00
2022-11-01T09:45:17.001Z,100793.65
2022-11-01T09:50:27.202Z,100781.27
2022-11-01T09:55:43.355Z,100775.55
2022-11-01T10:00:58.585Z,100775.89
2022-11-01T10:06:15.789Z,100776.71
2022-11-01T10:11:43.804Z,100780.08
2022-11-01T10:16:59.247Z,100782.23
2022-11-01T10:22:12.792Z,100778.63
2022-11-01T10:27:26.711Z,100778.71
2022-11-01T10:32:39.443Z,100781.45
2022-11-01T10:38:04.333Z,100772.05
2022-11-01T10:43:21.482Z,100759.51
2022-11-01T10:48:33.472Z,100761.36
2022-11-01T10:53:44.735Z,100757.02
2022-11-01T10:58:52.861Z,100751.36
2022-11-01T11:04:02.496Z,100751.77
2022-11-01T11:09:18.899Z,100741.64
2022-11-01T11:14:28.304Z,100730.66
2022-11-01T11:19:38.502Z,100721.92
2022-11-01T11:24:45.638Z,100720.69
2022-11-01T11:29:54.496Z,100719.36
2022-11-01T11:35:03.474Z,100715.74
2022-11-01T11:40:21.067Z,100710.09
2022-11-01T11:45:30.045Z,100708.96
2022-11-01T11:50:37.959Z,100701.92
2022-11-01T11:55:48.090Z,100701.34
2022-11-01T12:01:00.901Z,100703.68
2022-11-01T12:06:10.247Z,100702.80
2022-11-01T12:11:17.282Z,100698.66
2022-11-01T12:16:25.652Z,100695.74
2022-11-01T12:21:36.740Z,100686.95
2022-11-01T12:26:44.601Z,100681.54
2022-11-01T12:31:51.769Z,100674.32
2022-11-01T12:37:03.272Z,100665.59
2022-11-01T12:42:12.734Z,100671.13
2022-11-01T12:47:24.096Z,100676.85
2022-11-01T12:52:37.853Z,100681.42
2022-11-01T12:57:44.865Z,100691.92
2022-11-01T13:03:06.296Z,100692.33
2022-11-01T13:08:23.342Z,100686.25
2022-11-01T13:13:37.034Z,100681.09
2022-11-01T13:18:52.544Z,100684.27
2022-11-01T13:24:08.388Z,100700.35
2022-11-01T13:29:20.921Z,100716.06
2022-11-01T13:34:38.915Z,100716.86
2022-11-01T13:39:58.761Z,100709.56
2022-11-01T13:45:26.522Z,100711.02
2022-11-01T13:50:58.842Z,100714.33
2022-11-01T13:56:11.619Z,100722.52
2022-11-01T14:01:35.937Z,100725.02
2022-11-01T14:06:44.131Z,100716.23
2022-11-01T14:11:53.838Z,100712.83
2022-11-01T14:17:40.759Z,100719.21
2022-11-01T14:22:46.946Z,100730.37
2022-11-01T14:28:13.532Z,100739.48
2022-11-01T14:33:22.681Z,100747.71
2022-11-01T14:38:33.957Z,100757.38
2022-11-01T14:43:41.847Z,100760.10
2022-11-01T14:48:53.693Z,100753.96
2022-11-01T14:54:13.607Z,100763.06
2022-11-01T14:59:26.391Z,100773.37
2022-11-01T15:04:39.907Z,100775.16
2022-11-01T15:09:57.842Z,100759.66
2022-11-01T15:15:05.351Z,100759.18
2022-11-01T15:20:18.051Z,100767.19
2022-11-01T15:25:29.532Z,100775.39
2022-11-01T15:30:34.359Z,100773.70
2022-11-01T15:37:38.345Z,100774.45
2022-11-01T15:42:49.642Z,100777.71
2022-11-01T15:47:56.303Z,100769.03
2022-11-01T15:53:04.323Z,100759.65
2022-11-01T15:58:17.633Z,100763.13
2022-11-01T16:03:29.633Z,100776.08
2022-11-01T16:08:41.562Z,100782.98
2022-11-01T16:13:52.922Z,100788.13
2022-11-01T16:18:58.837Z,100796.41
2022-11-01T16:24:15.813Z,100781.80
2022-11-01T16:29:39.579Z,100775.77
2022-11-01T16:34:45.641Z,100775.96
2022-11-01T16:39:52.607Z,100783.94
2022-11-01T16:44:58.612Z,100780.77
2022-11-01T16:50:04.911Z,100771.52
2022-11-01T16:55:12.700Z,100768.77
2022-11-01T17:00:19.167Z,100773.88
2022-11-01T17:05:26.905Z,100768.84
2022-11-01T17:10:32.792Z,100760.81
2022-11-01T17:15:43.711Z,100752.98
2022-11-01T17:20:50.586Z,100748.54
2022-11-01T17:25:57.994Z,100768.99
2022-11-01T17:31:03.999Z,100767.66
2022-11-01T17:36:14.823Z,100766.94
2022-11-01T17:41:21.881Z,100762.73
2022-11-01T17:46:27.961Z,100770.41
2022-11-01T17:51:34.284Z,100774.25
2022-11-01T17:56:40.327Z,100771.66
2022-11-01T18:01:46.339Z,100765.17
2022-11-01T18:06:52.502Z,100764.90
2022-11-01T18:12:05.743Z,100766.91
2022-11-01T18:17:32.032Z,100773.61
2022-11-01T18:22:45.003Z,100769.40
2022-11-01T18:27:51.450Z,100765.94
2022-11-01T18:33:03.502Z,100772.27
2022-11-01T18:38:23.442Z,100768.48
2022-11-01T18:43:33.994Z,100761.00
2022-11-01T18:48:40.402Z,100766.86
2022-11-01T18:53:46.829Z,100776.80
2022-11-01T18:58:55.421Z,100780.25
2022-11-01T19:04:04.909Z,100786.10
2022-11-01T19:09:22.004Z,100785.11
2022-11-01T19:14:28.937Z,100786.77
2022-11-01T19:19:38.346Z,100791.26
2022-11-01T19:24:44.653Z,100790.27
2022-11-01T19:29:57.613Z,100787.98
2022-11-01T19:35:04.953Z,100793.58
2022-11-01T19:40:27.859Z,100796.42
2022-11-01T19:45:35.049Z,100801.30
2022-11-01T19:50:43.842Z,100796.73
2022-11-01T19:55:52.719Z,100798.73
2022-11-01T20:01:26.532Z,100799.83
2022-11-01T20:06:37.360Z,100804.50
2022-11-01T20:11:43.594Z,100797.39
2022-11-01T20:16:49.620Z,100798.54
2022-11-01T20:21:55.920Z,100791.37
2022-11-01T20:27:04.040Z,100793.86
2022-11-01T20:32:10.261Z,100795.58
2022-11-01T20:37:28.523Z,100795.54
2022-11-01T20:42:35.287Z,100795.00
2022-11-01T20:47:46.231Z,100792.95
2022-11-01T20:52:52.746Z,100797.66
2022-11-01T20:57:58.518Z,100802.88
2022-11-01T21:03:12.102Z,100799.36
2022-11-01T21:08:23.089Z,100796.63
2022-11-01T21:13:29.969Z,100798.55
2022-11-01T21:18:43.708Z,100796.83
2022-11-01T21:23:50.566Z,100798.36
2022-11-01T21:28:58.961Z,100790.35
2022-11-01T21:34:23.076Z,100787.60
2022-11-01T21:39:33.084Z,100792.29
2022-11-01T21:44:42.366Z,100789.96
2022-11-01T21:49:48.942Z,100785.67
2022-11-01T21:54:54.752Z,100780.40
2022-11-01T22:00:00.599Z,100783.88
2022-11-01T22:05:07.786Z,100779.39
2022-11-01T22:10:14.102Z,100783.69
2022-11-01T22:15:20.217Z,100787.85
2022-11-01T22:20:27.054Z,100789.60
2022-11-01T22:25:33.385Z,100797.45
2022-11-01T22:30:39.207Z,100797.17
2022-11-01T22:35:45.203Z,100794.98
2022-11-01T22:46:02.069Z,100796.36
2022-11-01T22:51:21.781Z,100790.51
2022-11-01T22:56:29.615Z,100794.16
2022-11-01T23:01:35.566Z,100801.80
2022-11-01T23:06:42.817Z,100806.18
2022-11-01T23:12:11.594Z,100808.52
2022-11-01T23:17:26.928Z,100807.28
2022-11-01T23:22:36.855Z,100807.07
2022-11-01T23:27:45.057Z,100803.39
2022-11-01T23:32:51.015Z,100808.20
2022-11-01T23:37:58.406Z,100812.30
2022-11-01T23:43:15.638Z,100815.02
2022-11-01T23:48:23.696Z,100818.33
2022-11-01T23:53:35.021Z,100819.69
2022-11-01T23:58:41.703Z,100821.88
